createdAt,value
2018-10-18T00:00:10.706Z,11.70
2018-10-18T00:02:38.913Z,11.60
2018-10-18T00:05:07.945Z,11.60
2018-10-18T00:07:36.253Z,11.50
2018-10-18T00:10:05.300Z,11.50
2018-10-18T00:12:33.619Z,11.50
2018-10-18T00:15:01.912Z,11.50
2018-10-18T00:17:35.715Z,11.50
2018-10-18T00:20:04.097Z,11.40
2018-10-18T00:22:32.364Z,11.40
2018-10-18T00:25:00.654Z,11.40
2018-10-18T00:27:28.962Z,11.40
2018-10-18T00:29:57.285Z,11.40
2018-10-18T00:32:25.592Z,11.30
2018-10-18T00:34:53.892Z,11.40
2018-10-18T00:37:22.216Z,11.30
2018-10-18T00:39:50.499Z,11.30
2018-10-18T00:42:18.864Z,11.30
2018-10-18T00:44:47.164Z,11.30
2018-10-18T00:47:15.476Z,11.20
2018-10-18T00:49:43.784Z,11.20
2018-10-18T00:52:12.095Z,11.20
2018-10-18T00:54:40.390Z,11.20
2018-10-18T00:57:08.710Z,11.20
2018-10-18T00:59:37.008Z,11.20
2018-10-18T01:02:05.507Z,11.20
2018-10-18T01:04:33.767Z,11.10
2018-10-18T01:07:02.093Z,11.10
2018-10-18T01:09:30.393Z,11.10
2018-10-18T01:11:58.743Z,11.00
2018-10-18T01:14:27.164Z,11.00
2018-10-18T01:17:00.835Z,11.00
2018-10-18T01:19:29.192Z,11.00
2018-10-18T01:21:57.528Z,11.00
2018-10-18T01:24:25.860Z,11.00
2018-10-18T01:26:54.292Z,10.90
2018-10-18T01:29:22.600Z,10.90
2018-10-18T01:31:50.920Z,10.90
2018-10-18T01:34:19.227Z,10.90
2018-10-18T01:36:47.567Z,10.90
2018-10-18T01:39:15.876Z,10.90
2018-10-18T01:41:44.194Z,10.90
2018-10-18T01:44:12.555Z,10.90
2018-10-18T01:46:40.900Z,10.80
2018-10-18T01:49:09.212Z,10.80
2018-10-18T01:51:37.553Z,10.80
2018-10-18T01:54:05.939Z,10.80
2018-10-18T01:56:34.205Z,10.80
2018-10-18T01:59:09.164Z,10.80
2018-10-18T02:01:37.489Z,10.70
2018-10-18T02:04:06.175Z,10.70
2018-10-18T02:06:34.469Z,10.70
2018-10-18T02:09:02.823Z,10.70
2018-10-18T02:11:31.137Z,10.70
2018-10-18T02:13:59.472Z,10.70
2018-10-18T02:16:28.513Z,10.70
2018-10-18T02:18:56.872Z,10.60
2018-10-18T02:21:25.188Z,10.60
2018-10-18T02:23:53.562Z,10.60
2018-10-18T02:26:21.853Z,10.60
2018-10-18T02:28:50.255Z,10.60
2018-10-18T02:31:18.555Z,10.60
2018-10-18T02:33:46.875Z,10.50
2018-10-18T02:36:15.274Z,10.50
2018-10-18T02:38:43.540Z,10.50
2018-10-18T02:41:11.859Z,10.50
2018-10-18T02:43:40.179Z,10.50
2018-10-18T02:46:08.507Z,10.50
2018-10-18T02:48:36.825Z,10.50
2018-10-18T02:51:05.137Z,10.40
2018-10-18T02:53:33.464Z,10.40
2018-10-18T02:56:01.770Z,10.40
2018-10-18T02:58:30.123Z,10.40
2018-10-18T03:00:58.439Z,10.40
2018-10-18T03:03:26.772Z,10.40
2018-10-18T03:05:55.120Z,10.40
2018-10-18T03:08:23.410Z,10.40
2018-10-18T03:10:51.716Z,10.40
2018-10-18T03:13:20.040Z,10.30
2018-10-18T03:15:48.351Z,10.30
2018-10-18T03:18:16.738Z,10.30
2018-10-18T03:20:45.032Z,10.30
2018-10-18T03:23:13.348Z,10.20
2018-10-18T03:25:41.660Z,10.20
2018-10-18T03:28:09.983Z,10.20
2018-10-18T03:30:38.368Z,10.20
2018-10-18T03:33:06.691Z,10.20
2018-10-18T03:35:34.994Z,10.10
2018-10-18T03:38:03.315Z,10.10
2018-10-18T03:40:31.652Z,10.10
2018-10-18T03:42:59.972Z,10.00
2018-10-18T03:45:28.307Z,10.00
2018-10-18T03:47:56.656Z,10.00
2018-10-18T03:50:24.986Z,9.90
2018-10-18T03:52:53.312Z,9.90
2018-10-18T03:55:21.656Z,9.90
2018-10-18T03:57:49.980Z,9.90
2018-10-18T04:00:18.302Z,9.80
2018-10-18T04:02:46.628Z,9.80
2018-10-18T04:05:14.927Z,9.80
2018-10-18T04:07:43.248Z,9.80
2018-10-18T04:10:11.548Z,9.80
2018-10-18T04:12:39.939Z,9.70
2018-10-18T04:15:08.231Z,9.70
2018-10-18T04:17:36.527Z,9.70
2018-10-18T04:20:05.913Z,9.70
2018-10-18T04:22:34.261Z,9.70
2018-10-18T04:25:02.551Z,9.70
2018-10-18T04:27:30.852Z,9.70
2018-10-18T04:29:59.237Z,9.70
2018-10-18T04:32:27.517Z,9.70
2018-10-18T04:34:55.836Z,9.70
2018-10-18T04:37:24.137Z,9.70
2018-10-18T04:39:52.463Z,9.70
2018-10-18T04:42:20.767Z,9.60
2018-10-18T04:44:49.395Z,9.70
2018-10-18T04:47:17.737Z,9.60
2018-10-18T04:49:46.056Z,9.60
2018-10-18T04:52:14.350Z,9.60
2018-10-18T04:54:42.668Z,9.60
2018-10-18T04:57:10.983Z,9.60
2018-10-18T04:59:39.306Z,9.60
2018-10-18T05:02:07.611Z,9.60
2018-10-18T05:04:35.927Z,9.60
2018-10-18T05:07:04.277Z,9.60
2018-10-18T05:09:32.555Z,9.70
2018-10-18T05:12:00.840Z,9.70
2018-10-18T05:14:29.156Z,9.70
2018-10-18T05:16:57.469Z,9.70
2018-10-18T05:19:25.788Z,9.70
2018-10-18T05:21:54.088Z,9.70
2018-10-18T05:24:22.391Z,9.70
2018-10-18T05:26:50.713Z,9.70
2018-10-18T05:29:19.032Z,9.70
2018-10-18T05:31:47.370Z,9.70
2018-10-18T05:34:15.676Z,9.70
2018-10-18T05:36:43.968Z,9.80
2018-10-18T05:39:13.241Z,9.80
2018-10-18T05:41:41.535Z,9.80
2018-10-18T05:44:09.863Z,9.80
2018-10-18T05:46:38.186Z,9.80
2018-10-18T05:49:06.563Z,9.80
2018-10-18T05:51:34.837Z,9.80
2018-10-18T05:54:03.358Z,9.90
2018-10-18T05:56:31.492Z,9.90
2018-10-18T05:58:59.804Z,9.90
2018-10-18T06:01:28.112Z,9.90
2018-10-18T06:03:56.434Z,10.00
2018-10-18T06:06:24.748Z,10.00
2018-10-18T06:08:53.077Z,10.10
2018-10-18T06:11:32.260Z,10.10
2018-10-18T06:14:00.580Z,10.10
2018-10-18T06:16:28.896Z,10.20
2018-10-18T06:18:57.227Z,10.20
2018-10-18T06:21:25.552Z,10.30
2018-10-18T06:23:53.880Z,10.30
2018-10-18T06:26:22.181Z,10.30
2018-10-18T06:28:51.263Z,10.40
2018-10-18T06:31:19.572Z,10.40
2018-10-18T06:33:48.117Z,10.50
2018-10-18T06:36:16.431Z,10.60
2018-10-18T06:38:44.782Z,10.60
2018-10-18T06:41:13.136Z,10.70
2018-10-18T06:43:42.135Z,10.70
2018-10-18T06:46:12.689Z,10.80
2018-10-18T06:48:41.602Z,10.90
2018-10-18T06:51:10.357Z,10.90
2018-10-18T06:53:45.121Z,11.00
2018-10-18T06:56:13.442Z,11.00
2018-10-18T06:58:41.756Z,11.10
2018-10-18T07:01:10.095Z,11.20
2018-10-18T07:03:38.391Z,11.20
2018-10-18T07:06:06.779Z,11.30
2018-10-18T07:08:35.032Z,11.30
2018-10-18T07:11:03.498Z,11.30
2018-10-18T07:13:31.688Z,11.40
2018-10-18T07:16:00.034Z,11.40
2018-10-18T07:18:28.353Z,11.50
2018-10-18T07:20:56.676Z,11.50
2018-10-18T07:23:24.985Z,11.50
2018-10-18T07:25:53.309Z,11.50
2018-10-18T07:28:21.627Z,11.60
2018-10-18T07:30:49.947Z,11.60
2018-10-18T07:33:18.247Z,11.60
2018-10-18T07:35:46.570Z,11.60
2018-10-18T07:38:14.900Z,11.60
2018-10-18T07:40:43.237Z,11.60
2018-10-18T07:43:11.532Z,11.70
2018-10-18T07:45:39.868Z,11.70
2018-10-18T07:48:08.189Z,11.70
2018-10-18T07:50:36.513Z,11.70
2018-10-18T07:53:04.838Z,11.70
2018-10-18T07:55:33.167Z,11.70
2018-10-18T07:58:01.478Z,11.70
2018-10-18T08:00:29.822Z,11.70
2018-10-18T08:02:58.127Z,11.80
2018-10-18T08:05:26.455Z,11.80
2018-10-18T08:07:54.756Z,11.80
2018-10-18T08:10:29.791Z,11.80
2018-10-18T08:12:58.110Z,11.90
2018-10-18T08:15:26.453Z,11.90
2018-10-18T08:17:54.798Z,11.90
2018-10-18T08:20:23.119Z,12.00
2018-10-18T08:22:51.416Z,12.00
2018-10-18T08:25:19.774Z,12.00
2018-10-18T08:27:48.056Z,12.10
2018-10-18T08:30:16.375Z,12.10
2018-10-18T08:32:44.739Z,12.10
2018-10-18T08:35:13.340Z,12.20
2018-10-18T08:37:42.583Z,12.20
2018-10-18T08:40:10.852Z,12.20
2018-10-18T08:42:39.156Z,12.30
2018-10-18T08:45:08.357Z,12.30
2018-10-18T08:47:36.660Z,12.30
2018-10-18T08:50:06.076Z,12.30
2018-10-18T08:52:34.301Z,12.30
2018-10-18T08:55:02.659Z,12.30
2018-10-18T08:57:30.973Z,12.30
2018-10-18T08:59:59.300Z,12.40
2018-10-18T09:02:27.595Z,12.40
2018-10-18T09:04:55.923Z,12.40
2018-10-18T09:07:24.224Z,12.40
2018-10-18T09:09:52.531Z,12.50
2018-10-18T09:12:20.856Z,12.50
2018-10-18T09:14:49.157Z,12.50
2018-10-18T09:17:17.482Z,12.50
2018-10-18T09:19:45.786Z,12.60
2018-10-18T09:22:14.123Z,12.60
2018-10-18T09:24:42.428Z,12.60
2018-10-18T09:27:10.756Z,12.60
2018-10-18T09:29:39.055Z,12.70
2018-10-18T09:32:07.381Z,12.70
2018-10-18T09:34:35.880Z,12.70
2018-10-18T09:37:04.079Z,12.70
2018-10-18T09:39:32.382Z,12.80
2018-10-18T09:42:00.697Z,12.80
2018-10-18T09:44:29.069Z,12.80
2018-10-18T09:46:57.371Z,12.80
2018-10-18T09:49:25.677Z,12.90
2018-10-18T09:51:54.007Z,12.90
2018-10-18T09:54:22.342Z,12.90
2018-10-18T09:56:50.681Z,13.00
2018-10-18T09:59:18.989Z,13.00
2018-10-18T10:01:52.369Z,13.00
2018-10-18T10:04:20.732Z,13.10
2018-10-18T10:06:49.052Z,13.10
2018-10-18T10:09:17.360Z,13.20
2018-10-18T10:11:45.694Z,13.20
2018-10-18T10:14:14.013Z,13.20
2018-10-18T10:16:42.352Z,13.30
2018-10-18T10:19:10.698Z,13.30
2018-10-18T10:21:39.049Z,13.40
2018-10-18T10:24:07.360Z,13.40
2018-10-18T10:26:35.752Z,13.40
2018-10-18T10:29:04.079Z,13.50
2018-10-18T10:31:32.428Z,13.50
2018-10-18T10:34:00.732Z,13.60
2018-10-18T10:36:29.063Z,13.60
2018-10-18T10:38:57.424Z,13.60
2018-10-18T10:41:25.716Z,13.70
2018-10-18T10:43:54.067Z,13.70
2018-10-18T10:46:22.433Z,13.70
2018-10-18T10:48:50.721Z,13.70
2018-10-18T10:51:19.102Z,13.80
2018-10-18T10:53:47.393Z,13.80
2018-10-18T10:56:15.854Z,13.80
2018-10-18T10:58:44.081Z,13.80
2018-10-18T11:01:17.008Z,13.90
2018-10-18T11:03:45.668Z,13.90
2018-10-18T11:06:14.206Z,13.90
2018-10-18T11:08:42.503Z,14.00
2018-10-18T11:11:11.332Z,14.00
2018-10-18T11:13:39.640Z,14.00
2018-10-18T11:16:08.194Z,14.10
2018-10-18T11:18:37.482Z,14.10
2018-10-18T11:21:06.967Z,14.20
2018-10-18T11:23:35.872Z,14.20
2018-10-18T11:26:04.378Z,14.20
2018-10-18T11:28:32.733Z,14.30
2018-10-18T11:31:04.156Z,14.30
2018-10-18T11:33:32.478Z,14.40
2018-10-18T11:36:00.867Z,14.40
2018-10-18T11:38:29.194Z,14.50
2018-10-18T11:40:57.519Z,14.50
2018-10-18T11:43:25.924Z,14.50
2018-10-18T11:45:54.286Z,14.60
2018-10-18T11:48:22.631Z,14.60
2018-10-18T11:50:50.950Z,14.60
2018-10-18T11:53:19.310Z,14.70
2018-10-18T11:55:47.645Z,14.70
2018-10-18T11:58:16.281Z,14.80
2018-10-18T12:00:44.606Z,14.80
2018-10-18T12:03:12.953Z,14.90
2018-10-18T12:05:41.306Z,14.90
2018-10-18T12:08:09.747Z,15.00
2018-10-18T12:10:37.997Z,15.00
2018-10-18T12:13:06.347Z,15.10
2018-10-18T12:15:34.683Z,15.10
2018-10-18T12:18:03.035Z,15.10
2018-10-18T12:20:31.368Z,15.10
2018-10-18T12:22:59.755Z,15.20
2018-10-18T12:25:28.078Z,15.20
2018-10-18T12:27:56.429Z,15.20
2018-10-18T12:30:24.750Z,15.20
2018-10-18T12:32:53.098Z,15.20
2018-10-18T12:35:21.417Z,15.30
2018-10-18T12:37:49.786Z,15.30
2018-10-18T12:40:18.179Z,15.40
2018-10-18T12:42:48.098Z,15.30
2018-10-18T12:45:16.454Z,15.40
2018-10-18T12:47:44.799Z,15.40
2018-10-18T12:50:13.206Z,15.40
2018-10-18T12:52:41.499Z,15.40
2018-10-18T12:55:09.824Z,15.50
2018-10-18T12:57:38.171Z,15.50
2018-10-18T13:00:08.202Z,15.50
2018-10-18T13:02:36.684Z,15.50
2018-10-18T13:05:06.480Z,15.60
2018-10-18T13:07:34.830Z,15.60
2018-10-18T13:10:03.317Z,15.60
2018-10-18T13:12:31.789Z,15.70
2018-10-18T13:15:00.027Z,15.70
2018-10-18T13:17:28.383Z,15.70
2018-10-18T13:19:56.726Z,15.70
2018-10-18T13:22:25.083Z,15.70
2018-10-18T13:24:53.403Z,15.80
2018-10-18T13:27:21.755Z,15.80
2018-10-18T13:29:50.079Z,15.80
2018-10-18T13:32:18.534Z,15.80
2018-10-18T13:34:46.790Z,15.90
2018-10-18T13:37:15.142Z,15.90
2018-10-18T13:39:43.466Z,15.90
2018-10-18T13:42:11.979Z,15.90
2018-10-18T13:44:40.191Z,15.90
2018-10-18T13:47:08.543Z,16.00
2018-10-18T13:49:36.871Z,16.00
2018-10-18T13:52:05.310Z,16.00
2018-10-18T13:54:33.647Z,16.00
2018-10-18T13:57:01.971Z,16.00
2018-10-18T13:59:41.884Z,16.00
2018-10-18T14:02:10.176Z,16.00
2018-10-18T14:04:38.568Z,16.00
2018-10-18T14:07:06.883Z,16.00
2018-10-18T14:09:35.225Z,16.00
2018-10-18T14:12:03.563Z,16.00
2018-10-18T14:14:31.903Z,15.90
2018-10-18T14:17:00.242Z,15.90
2018-10-18T14:19:28.606Z,15.90
2018-10-18T14:21:56.935Z,15.90
2018-10-18T14:24:25.274Z,15.90
2018-10-18T14:26:53.629Z,15.90
2018-10-18T14:29:21.978Z,15.90
2018-10-18T14:31:50.302Z,15.90
2018-10-18T14:34:18.651Z,15.80
2018-10-18T14:36:46.974Z,15.80
2018-10-18T14:39:15.329Z,15.80
2018-10-18T14:41:43.650Z,15.80
2018-10-18T14:44:12.021Z,15.80
2018-10-18T14:46:40.357Z,15.80
2018-10-18T14:49:08.693Z,15.80
2018-10-18T14:51:37.036Z,15.80
2018-10-18T14:54:05.407Z,15.80
2018-10-18T14:56:33.744Z,15.70
2018-10-18T14:59:02.106Z,15.70
2018-10-18T15:01:30.438Z,15.70
2018-10-18T15:03:58.786Z,15.70
2018-10-18T15:06:27.110Z,15.70
2018-10-18T15:08:55.450Z,15.70
2018-10-18T15:11:23.774Z,15.70
2018-10-18T15:13:52.142Z,15.60
2018-10-18T15:16:20.458Z,15.60
2018-10-18T15:18:48.798Z,15.60
2018-10-18T15:21:17.137Z,15.60
2018-10-18T15:23:45.486Z,15.60
2018-10-18T15:26:13.852Z,15.60
2018-10-18T15:28:42.177Z,15.60
2018-10-18T15:31:10.507Z,15.60
2018-10-18T15:33:38.844Z,15.60
2018-10-18T15:36:07.186Z,15.60
2018-10-18T15:38:35.702Z,15.50
2018-10-18T15:41:03.887Z,15.50
2018-10-18T15:43:32.334Z,15.50
2018-10-18T15:46:00.675Z,15.50
2018-10-18T15:48:29.018Z,15.50
2018-10-18T15:50:57.393Z,15.50
2018-10-18T15:53:25.716Z,15.40
2018-10-18T15:55:54.044Z,15.40
2018-10-18T15:58:22.378Z,15.40
2018-10-18T16:00:50.718Z,15.40
2018-10-18T16:03:19.128Z,15.30
2018-10-18T16:05:47.418Z,15.30
2018-10-18T16:08:15.766Z,15.30
2018-10-18T16:10:44.108Z,15.30
2018-10-18T16:13:12.471Z,15.30
2018-10-18T16:15:40.824Z,15.30
2018-10-18T16:18:09.160Z,15.20
2018-10-18T16:20:37.511Z,15.20
2018-10-18T16:23:05.897Z,15.20
2018-10-18T16:25:34.227Z,15.20
2018-10-18T16:28:02.560Z,15.10
2018-10-18T16:30:30.894Z,15.10
2018-10-18T16:32:59.225Z,15.10
2018-10-18T16:35:27.567Z,15.10
2018-10-18T16:37:55.933Z,15.10
2018-10-18T16:40:24.303Z,15.00
2018-10-18T16:42:52.643Z,15.00
2018-10-18T16:45:20.997Z,15.00
2018-10-18T16:47:49.360Z,15.00
2018-10-18T16:50:17.751Z,14.90
2018-10-18T16:52:46.062Z,14.90
2018-10-18T16:55:14.402Z,14.90
2018-10-18T16:57:42.737Z,14.90
2018-10-18T17:00:11.880Z,14.90
2018-10-18T17:02:40.186Z,14.80
2018-10-18T17:05:08.779Z,14.80
2018-10-18T17:07:37.133Z,14.80
2018-10-18T17:10:05.871Z,14.80
2018-10-18T17:12:34.169Z,14.80
2018-10-18T17:15:02.606Z,14.80
2018-10-18T17:17:30.991Z,14.80
2018-10-18T17:19:59.341Z,14.70
2018-10-18T17:22:27.682Z,14.70
2018-10-18T17:24:56.040Z,14.80
2018-10-18T17:27:24.539Z,14.70
2018-10-18T17:29:52.751Z,14.70
2018-10-18T17:32:21.253Z,14.70
2018-10-18T17:34:49.510Z,14.70
2018-10-18T17:37:17.901Z,14.70
2018-10-18T17:39:46.255Z,14.60
2018-10-18T17:42:14.696Z,14.60
2018-10-18T17:44:42.980Z,14.60
2018-10-18T17:47:11.377Z,14.60
2018-10-18T17:49:39.670Z,14.60
2018-10-18T17:52:08.052Z,14.60
2018-10-18T17:54:36.362Z,14.60
2018-10-18T17:57:04.698Z,14.60
2018-10-18T17:59:33.037Z,14.60
2018-10-18T18:02:01.396Z,14.50
2018-10-18T18:04:29.722Z,14.50
2018-10-18T18:06:58.116Z,14.50
2018-10-18T18:09:26.469Z,14.50
2018-10-18T18:11:54.868Z,14.50
2018-10-18T18:14:23.319Z,14.50
2018-10-18T18:16:51.758Z,14.50
2018-10-18T18:19:20.118Z,14.50
2018-10-18T18:21:48.480Z,14.50
2018-10-18T18:24:16.848Z,14.50
2018-10-18T18:26:45.675Z,14.40
2018-10-18T18:29:13.680Z,14.40
2018-10-18T18:31:42.057Z,14.40
2018-10-18T18:34:10.449Z,14.40
2018-10-18T18:36:38.851Z,14.40
2018-10-18T18:39:08.617Z,14.40
2018-10-18T18:41:37.042Z,14.40
2018-10-18T18:44:05.696Z,14.40
2018-10-18T18:46:34.142Z,14.40
2018-10-18T18:49:02.496Z,14.40
2018-10-18T18:51:30.915Z,14.40
2018-10-18T18:53:59.206Z,14.40
2018-10-18T18:56:27.550Z,14.30
2018-10-18T18:58:55.875Z,14.30
2018-10-18T19:01:24.214Z,14.30
2018-10-18T19:03:52.533Z,14.30
2018-10-18T19:06:20.906Z,14.30
2018-10-18T19:08:49.227Z,14.30
2018-10-18T19:11:17.603Z,14.30
2018-10-18T19:13:45.942Z,14.30
2018-10-18T19:16:14.283Z,14.30
2018-10-18T19:18:42.610Z,14.30
2018-10-18T19:21:10.990Z,14.30
2018-10-18T19:23:39.317Z,14.30
2018-10-18T19:26:07.677Z,14.30
2018-10-18T19:28:36.087Z,14.20
2018-10-18T19:31:04.554Z,14.20
2018-10-18T19:33:32.874Z,14.20
2018-10-18T19:36:01.214Z,14.20
2018-10-18T19:38:29.566Z,14.20
2018-10-18T19:40:57.925Z,14.20
2018-10-18T19:43:26.251Z,14.10
2018-10-18T19:45:54.670Z,14.20
2018-10-18T19:48:22.981Z,14.10
2018-10-18T19:50:51.402Z,14.10
2018-10-18T19:53:19.728Z,14.10
2018-10-18T19:55:48.062Z,14.10
2018-10-18T19:58:16.399Z,14.10
2018-10-18T20:00:44.742Z,14.00
2018-10-18T20:03:13.067Z,14.00
2018-10-18T20:05:41.412Z,14.00
2018-10-18T20:08:09.790Z,14.00
2018-10-18T20:10:38.116Z,14.00
2018-10-18T20:13:06.528Z,14.00
2018-10-18T20:15:34.819Z,14.00
2018-10-18T20:18:03.233Z,14.00
2018-10-18T20:20:31.580Z,14.00
2018-10-18T20:22:59.956Z,13.90
2018-10-18T20:25:28.376Z,14.00
2018-10-18T20:27:56.651Z,13.90
2018-10-18T20:30:24.998Z,13.90
2018-10-18T20:32:53.326Z,13.90
2018-10-18T20:35:21.688Z,13.90
2018-10-18T20:37:50.010Z,13.90
2018-10-18T20:40:18.397Z,13.90
2018-10-18T20:42:46.718Z,13.90
2018-10-18T20:45:20.615Z,13.80
2018-10-18T20:47:49.051Z,13.80
2018-10-18T20:50:17.286Z,13.80
2018-10-18T20:52:45.639Z,13.80
2018-10-18T20:55:13.970Z,13.80
2018-10-18T20:57:42.324Z,13.80
2018-10-18T21:00:10.841Z,13.70
2018-10-18T21:02:39.118Z,13.70
2018-10-18T21:05:07.479Z,13.70
2018-10-18T21:07:35.829Z,13.70
2018-10-18T21:10:04.186Z,13.60
2018-10-18T21:12:32.531Z,13.60
2018-10-18T21:15:00.904Z,13.60
2018-10-18T21:17:29.230Z,13.50
2018-10-18T21:19:57.558Z,13.50
2018-10-18T21:22:25.898Z,13.40
2018-10-18T21:24:54.219Z,13.40
2018-10-18T21:27:22.576Z,13.30
2018-10-18T21:29:50.903Z,13.30
2018-10-18T21:32:19.251Z,13.20
2018-10-18T21:34:47.668Z,13.20
2018-10-18T21:37:15.946Z,13.10
2018-10-18T21:39:44.270Z,13.10
2018-10-18T21:42:12.602Z,13.00
2018-10-18T21:44:41.106Z,13.00
2018-10-18T21:47:09.675Z,12.90
2018-10-18T21:49:37.986Z,12.80
2018-10-18T21:52:06.333Z,12.80
2018-10-18T21:54:34.670Z,12.80
2018-10-18T21:57:03.064Z,12.70
2018-10-18T21:59:31.363Z,12.60
2018-10-18T22:01:59.706Z,12.60
2018-10-18T22:04:28.026Z,12.50
2018-10-18T22:06:56.361Z,12.50
2018-10-18T22:09:24.683Z,12.50
2018-10-18T22:11:53.038Z,12.40
2018-10-18T22:14:21.433Z,12.40
2018-10-18T22:16:49.725Z,12.30
2018-10-18T22:19:18.046Z,12.30
2018-10-18T22:21:46.401Z,12.20
2018-10-18T22:24:14.734Z,12.20
2018-10-18T22:26:43.082Z,12.10
2018-10-18T22:29:11.484Z,12.10
2018-10-18T22:31:39.777Z,12.10
2018-10-18T22:34:08.101Z,12.00
2018-10-18T22:36:36.442Z,12.00
2018-10-18T22:39:07.799Z,11.90
2018-10-18T22:41:36.274Z,11.80
2018-10-18T22:44:04.627Z,11.80
2018-10-18T22:46:32.975Z,11.80
2018-10-18T22:49:01.297Z,11.70
2018-10-18T22:51:29.655Z,11.70
2018-10-18T22:54:05.115Z,11.70
2018-10-18T22:56:33.458Z,11.60
2018-10-18T22:59:01.808Z,11.50
2018-10-18T23:01:30.176Z,11.50
2018-10-18T23:03:58.498Z,11.50
2018-10-18T23:06:26.888Z,11.40
2018-10-18T23:08:55.236Z,11.40
2018-10-18T23:11:23.567Z,11.40
2018-10-18T23:13:51.918Z,11.30
2018-10-18T23:16:20.246Z,11.30
2018-10-18T23:18:48.594Z,11.20
2018-10-18T23:21:16.926Z,11.20
2018-10-18T23:23:45.267Z,11.20
2018-10-18T23:26:13.615Z,11.10
2018-10-18T23:28:41.962Z,11.10
2018-10-18T23:31:10.288Z,11.00
2018-10-18T23:33:38.634Z,11.00
2018-10-18T23:36:06.964Z,11.00
2018-10-18T23:38:35.298Z,11.00
2018-10-18T23:41:03.672Z,10.90
2018-10-18T23:43:32.007Z,10.90
2018-10-18T23:46:06.902Z,10.80
2018-10-18T23:48:35.243Z,10.80
2018-10-18T23:51:03.617Z,10.80
2018-10-18T23:53:31.929Z,10.70
2018-10-18T23:56:00.250Z,10.70
2018-10-18T23:58:28.582Z,10.60
